sensor_id;sensor_type;location;lat;lon;timestamp;pressure;altitude;pressure_sealevel;temperature;humidity
37648;BME280;23490;53.656;10.076;2023-02-17T00:01:27;99384.97;;;-145.95;100.00
37648;BME280;23490;53.656;10.076;2023-02-17T00:03:53;99420.06;;;-145.95;100.00
37648;BME280;23490;53.656;10.076;2023-02-17T00:06:21;99393.22;;;-145.95;100.00
37648;BME280;23490;53.656;10.076;2023-02-17T00:08:47;99397.34;;;-145.95;100.00
37648;BME280;23490;53.656;10.076;2023-02-17T00:11:13;99405.63;;;-145.95;100.00
37648;BME280;23490;53.656;10.076;2023-02-17T00:13:39;99393.22;;;-145.95;100.00
37648;BME280;23490;53.656;10.076;2023-02-17T00:16:09;99376.69;;;-145.95;100.00
37648;BME280;23490;53.656;10.076;2023-02-17T00:18:35;99389.09;;;-145.95;100.00
37648;BME280;23490;53.656;10.076;2023-02-17T00:21:10;99389.09;;;-145.95;100.00
37648;BME280;23490;53.656;10.076;2023-02-17T00:23:35;99411.81;;;-145.95;100.00
37648;BME280;23490;53.656;10.076;2023-02-17T00:26:04;99376.69;;;-145.95;100.00
37648;BME280;23490;53.656;10.076;2023-02-17T00:28:29;99376.69;;;-145.95;100.00
37648;BME280;23490;53.656;10.076;2023-02-17T00:30:54;99432.47;;;-145.95;100.00
37648;BME280;23490;53.656;10.076;2023-02-17T00:33:20;99364.31;;;-145.95;100.00
37648;BME280;23490;53.656;10.076;2023-02-17T00:35:45;99389.09;;;-145.95;100.00
37648;BME280;23490;53.656;10.076;2023-02-17T00:38:10;99393.22;;;-145.95;100.00
37648;BME280;23490;53.656;10.076;2023-02-17T00:40:36;99360.19;;;-145.95;100.00
37648;BME280;23490;53.656;10.076;2023-02-17T00:43:01;99372.56;;;-145.95;100.00
37648;BME280;23490;53.656;10.076;2023-02-17T00:45:26;99397.34;;;-145.95;100.00
37648;BME280;23490;53.656;10.076;2023-02-17T00:47:51;99393.22;;;-145.95;100.00
37648;BME280;23490;53.656;10.076;2023-02-17T00:50:17;99405.63;;;-145.95;100.00
37648;BME280;23490;53.656;10.076;2023-02-17T00:52:42;99380.84;;;-145.95;100.00
37648;BME280;23490;53.656;10.076;2023-02-17T00:55:08;99376.69;;;-145.95;100.00
37648;BME280;23490;53.656;10.076;2023-02-17T00:57:33;99391.16;;;-145.95;100.00
37648;BME280;23490;53.656;10.076;2023-02-17T00:59:58;99368.44;;;-145.95;100.00
37648;BME280;23490;53.656;10.076;2023-02-17T01:02:24;99372.56;;;-145.95;100.00
37648;BME280;23490;53.656;10.076;2023-02-17T01:04:49;99384.97;;;-145.95;100.00
37648;BME280;23490;53.656;10.076;2023-02-17T01:07:14;99384.97;;;-145.95;100.00
37648;BME280;23490;53.656;10.076;2023-02-17T01:09:40;99399.41;;;-145.95;100.00
37648;BME280;23490;53.656;10.076;2023-02-17T01:12:05;99360.19;;;-145.95;100.00
37648;BME280;23490;53.656;10.076;2023-02-17T01:14:30;99389.09;;;-145.95;100.00
37648;BME280;23490;53.656;10.076;2023-02-17T01:16:56;99360.19;;;-145.95;100.00
37648;BME280;23490;53.656;10.076;2023-02-17T01:19:21;99389.09;;;-145.95;100.00
37648;BME280;23490;53.656;10.076;2023-02-17T01:21:46;99393.22;;;-145.95;100.00
37648;BME280;23490;53.656;10.076;2023-02-17T01:24:12;99376.69;;;-145.95;100.00
37648;BME280;23490;53.656;10.076;2023-02-17T01:26:38;99380.84;;;-145.95;100.00
37648;BME280;23490;53.656;10.076;2023-02-17T01:29:05;99366.38;;;-145.95;100.00
37648;BME280;23490;53.656;10.076;2023-02-17T01:31:31;99405.63;;;-145.95;100.00
37648;BME280;23490;53.656;10.076;2023-02-17T01:33:58;99393.22;;;-145.95;100.00
37648;BME280;23490;53.656;10.076;2023-02-17T01:36:24;99356.06;;;-145.95;100.00
37648;BME280;23490;53.656;10.076;2023-02-17T01:38:50;99343.66;;;-145.95;100.00
37648;BME280;23490;53.656;10.076;2023-02-17T01:41:17;99339.53;;;-145.95;100.00
37648;BME280;23490;53.656;10.076;2023-02-17T01:46:31;99393.22;;;-145.95;100.00
37648;BME280;23490;53.656;10.076;2023-02-17T01:48:56;99372.56;;;-145.95;100.00
37648;BME280;23490;53.656;10.076;2023-02-17T01:51:28;99360.19;;;-145.95;100.00
37648;BME280;23490;53.656;10.076;2023-02-17T01:53:56;99372.56;;;-145.95;100.00
37648;BME280;23490;53.656;10.076;2023-02-17T01:56:23;99362.25;;;-145.95;100.00
37648;BME280;23490;53.656;10.076;2023-02-17T01:59:00;99356.06;;;-145.95;100.00
37648;BME280;23490;53.656;10.076;2023-02-17T02:01:27;99323.00;;;-145.95;100.00
37648;BME280;23490;53.656;10.076;2023-02-17T02:03:54;99374.63;;;-145.95;100.00
37648;BME280;23490;53.656;10.076;2023-02-17T02:06:23;99368.44;;;-145.95;100.00
37648;BME280;23490;53.656;10.076;2023-02-17T02:08:57;99364.31;;;-145.95;100.00
37648;BME280;23490;53.656;10.076;2023-02-17T02:11:26;99380.84;;;-145.95;100.00
37648;BME280;23490;53.656;10.076;2023-02-17T02:13:51;99387.03;;;-145.95;100.00
37648;BME280;23490;53.656;10.076;2023-02-17T02:16:22;99351.91;;;-145.95;100.00
37648;BME280;23490;53.656;10.076;2023-02-17T02:19:18;99360.19;;;-145.95;100.00
37648;BME280;23490;53.656;10.076;2023-02-17T02:24:48;99360.19;;;-145.95;100.00
37648;BME280;23490;53.656;10.076;2023-02-17T02:27:32;99362.25;;;-145.95;100.00
37648;BME280;23490;53.656;10.076;2023-02-17T02:33:32;99337.47;;;-145.95;100.00
37648;BME280;23490;53.656;10.076;2023-02-17T02:36:03;99351.91;;;-145.95;100.00
37648;BME280;23490;53.656;10.076;2023-02-17T02:38:40;99339.53;;;-145.95;100.00
37648;BME280;23490;53.656;10.076;2023-02-17T02:41:11;99347.78;;;-145.95;100.00
37648;BME280;23490;53.656;10.076;2023-02-17T02:43:40;99358.13;;;-145.95;100.00
37648;BME280;23490;53.656;10.076;2023-02-17T02:46:05;99356.06;;;-145.95;100.00
37648;BME280;23490;53.656;10.076;2023-02-17T02:48:31;99372.56;;;-145.95;100.00
37648;BME280;23490;53.656;10.076;2023-02-17T02:53:52;99347.78;;;-145.95;100.00
37648;BME280;23490;53.656;10.076;2023-02-17T02:56:38;99362.25;;;-145.95;100.00
37648;BME280;23490;53.656;10.076;2023-02-17T02:59:41;99320.94;;;-145.95;100.00
37648;BME280;23490;53.656;10.076;2023-02-17T03:07:40;99351.91;;;-145.95;100.00
37648;BME280;23490;53.656;10.076;2023-02-17T03:10:08;99347.78;;;-145.95;100.00
37648;BME280;23490;53.656;10.076;2023-02-17T03:12:36;99364.31;;;-145.95;100.00
37648;BME280;23490;53.656;10.076;2023-02-17T03:17:48;99339.53;;;-145.95;100.00
37648;BME280;23490;53.656;10.076;2023-02-17T03:20:14;99339.53;;;-145.95;100.00
37648;BME280;23490;53.656;10.076;2023-02-17T03:22:43;99329.19;;;-145.95;100.00
37648;BME280;23490;53.656;10.076;2023-02-17T03:25:09;99327.13;;;-145.95;100.00
37648;BME280;23490;53.656;10.076;2023-02-17T03:27:35;99347.78;;;-145.95;100.00
37648;BME280;23490;53.656;10.076;2023-02-17T03:30:00;99310.63;;;-145.95;100.00
37648;BME280;23490;53.656;10.076;2023-02-17T03:32:25;99335.41;;;-145.95;100.00
37648;BME280;23490;53.656;10.076;2023-02-17T03:34:51;99339.53;;;-145.95;100.00
37648;BME280;23490;53.656;10.076;2023-02-17T03:37:16;99331.28;;;-145.95;100.00
37648;BME280;23490;53.656;10.076;2023-02-17T03:39:41;99298.22;;;-145.95;100.00
37648;BME280;23490;53.656;10.076;2023-02-17T03:42:07;99306.50;;;-145.95;100.00
37648;BME280;23490;53.656;10.076;2023-02-17T03:44:32;99300.28;;;-145.95;100.00
37648;BME280;23490;53.656;10.076;2023-02-17T03:46:57;99306.50;;;-145.95;100.00
37648;BME280;23490;53.656;10.076;2023-02-17T03:49:23;99294.09;;;-145.95;100.00
37648;BME280;23490;53.656;10.076;2023-02-17T03:51:49;99308.56;;;-145.95;100.00
37648;BME280;23490;53.656;10.076;2023-02-17T03:54:14;99354.00;;;-145.95;100.00
37648;BME280;23490;53.656;10.076;2023-02-17T03:56:40;99314.75;;;-145.95;100.00
37648;BME280;23490;53.656;10.076;2023-02-17T03:59:05;99318.88;;;-145.95;100.00
37648;BME280;23490;53.656;10.076;2023-02-17T04:01:30;99298.22;;;-145.95;100.00
37648;BME280;23490;53.656;10.076;2023-02-17T04:03:56;99343.66;;;-145.95;100.00
37648;BME280;23490;53.656;10.076;2023-02-17T04:06:21;99314.75;;;-145.95;100.00
37648;BME280;23490;53.656;10.076;2023-02-17T04:08:47;99277.56;;;-145.95;100.00
37648;BME280;23490;53.656;10.076;2023-02-17T04:11:12;99306.50;;;-145.95;100.00
37648;BME280;23490;53.656;10.076;2023-02-17T04:13:38;99323.00;;;-145.95;100.00
37648;BME280;23490;53.656;10.076;2023-02-17T04:16:06;99302.34;;;-145.95;100.00
37648;BME280;23490;53.656;10.076;2023-02-17T04:18:31;99314.75;;;-145.95;100.00
37648;BME280;23490;53.656;10.076;2023-02-17T04:20:57;99316.81;;;-145.95;100.00
37648;BME280;23490;53.656;10.076;2023-02-17T04:23:23;99310.63;;;-145.95;100.00
37648;BME280;23490;53.656;10.076;2023-02-17T04:25:48;99285.84;;;-145.95;100.00
37648;BME280;23490;53.656;10.076;2023-02-17T04:28:14;99327.13;;;-145.95;100.00
37648;BME280;23490;53.656;10.076;2023-02-17T04:30:47;99310.63;;;-145.95;100.00
37648;BME280;23490;53.656;10.076;2023-02-17T04:33:14;99310.63;;;-145.95;100.00
37648;BME280;23490;53.656;10.076;2023-02-17T04:35:39;99316.81;;;-145.95;100.00
37648;BME280;23490;53.656;10.076;2023-02-17T04:38:05;99356.06;;;-145.95;100.00
37648;BME280;23490;53.656;10.076;2023-02-17T04:40:31;99269.31;;;-145.95;100.00
37648;BME280;23490;53.656;10.076;2023-02-17T04:42:57;99298.22;;;-145.95;100.00
37648;BME280;23490;53.656;10.076;2023-02-17T04:45:22;99300.28;;;-145.95;100.00
37648;BME280;23490;53.656;10.076;2023-02-17T04:47:48;99298.22;;;-145.95;100.00
37648;BME280;23490;53.656;10.076;2023-02-17T04:50:13;99298.22;;;-145.95;100.00
37648;BME280;23490;53.656;10.076;2023-02-17T04:52:39;99285.84;;;-145.95;100.00
37648;BME280;23490;53.656;10.076;2023-02-17T04:55:05;99310.63;;;-145.95;100.00
37648;BME280;23490;53.656;10.076;2023-02-17T04:57:31;99310.63;;;-145.95;100.00
37648;BME280;23490;53.656;10.076;2023-02-17T04:59:56;99294.09;;;-145.95;100.00
37648;BME280;23490;53.656;10.076;2023-02-17T05:02:22;99261.06;;;-145.95;100.00
37648;BME280;23490;53.656;10.076;2023-02-17T05:04:47;99283.78;;;-145.95;100.00
37648;BME280;23490;53.656;10.076;2023-02-17T05:07:13;99273.44;;;-145.95;100.00
37648;BME280;23490;53.656;10.076;2023-02-17T05:09:38;99277.56;;;-145.95;100.00
37648;BME280;23490;53.656;10.076;2023-02-17T05:12:05;99285.84;;;-145.95;100.00
37648;BME280;23490;53.656;10.076;2023-02-17T05:14:31;99298.22;;;-145.95;100.00
37648;BME280;23490;53.656;10.076;2023-02-17T05:16:57;99294.09;;;-145.95;100.00
37648;BME280;23490;53.656;10.076;2023-02-17T05:19:22;99273.44;;;-145.95;100.00
37648;BME280;23490;53.656;10.076;2023-02-17T05:21:48;99304.41;;;-145.95;100.00
37648;BME280;23490;53.656;10.076;2023-02-17T05:24:14;99281.72;;;-145.95;100.00
37648;BME280;23490;53.656;10.076;2023-02-17T05:26:39;99277.56;;;-145.95;100.00
37648;BME280;23490;53.656;10.076;2023-02-17T05:29:04;99294.09;;;-145.95;100.00
37648;BME280;23490;53.656;10.076;2023-02-17T05:31:30;99289.97;;;-145.95;100.00
37648;BME280;23490;53.656;10.076;2023-02-17T05:33:55;99259.00;;;-145.95;100.00
37648;BME280;23490;53.656;10.076;2023-02-17T05:36:20;99323.00;;;-145.95;100.00
37648;BME280;23490;53.656;10.076;2023-02-17T05:38:46;99269.31;;;-145.95;100.00
37648;BME280;23490;53.656;10.076;2023-02-17T05:41:17;99281.72;;;-145.95;100.00
37648;BME280;23490;53.656;10.076;2023-02-17T05:43:43;99304.41;;;-145.95;100.00
37648;BME280;23490;53.656;10.076;2023-02-17T05:46:09;99289.97;;;-145.95;100.00
37648;BME280;23490;53.656;10.076;2023-02-17T05:48:34;99285.84;;;-145.95;100.00
37648;BME280;23490;53.656;10.076;2023-02-17T05:51:00;99285.84;;;-145.95;100.00
37648;BME280;23490;53.656;10.076;2023-02-17T05:53:25;99279.63;;;-145.95;100.00
37648;BME280;23490;53.656;10.076;2023-02-17T05:55:51;99310.63;;;-145.95;100.00
37648;BME280;23490;53.656;10.076;2023-02-17T05:58:16;99310.63;;;-145.95;100.00
37648;BME280;23490;53.656;10.076;2023-02-17T06:00:42;99296.16;;;-145.95;100.00
37648;BME280;23490;53.656;10.076;2023-02-17T06:03:07;99279.63;;;-145.95;100.00
37648;BME280;23490;53.656;10.076;2023-02-17T06:05:32;99269.31;;;-145.95;100.00
37648;BME280;23490;53.656;10.076;2023-02-17T06:07:58;99277.56;;;-145.95;100.00
37648;BME280;23490;53.656;10.076;2023-02-17T06:10:23;99228.00;;;-145.95;100.00
37648;BME280;23490;53.656;10.076;2023-02-17T06:12:48;99281.72;;;-145.95;100.00
37648;BME280;23490;53.656;10.076;2023-02-17T06:15:14;99306.50;;;-145.95;100.00
37648;BME280;23490;53.656;10.076;2023-02-17T06:17:39;99333.34;;;-145.95;100.00
37648;BME280;23490;53.656;10.076;2023-02-17T06:20:05;99285.84;;;-145.95;100.00
37648;BME280;23490;53.656;10.076;2023-02-17T06:22:31;99285.84;;;-145.95;100.00
37648;BME280;23490;53.656;10.076;2023-02-17T06:24:56;99275.50;;;-145.95;100.00
37648;BME280;23490;53.656;10.076;2023-02-17T06:27:22;99306.50;;;-145.95;100.00
37648;BME280;23490;53.656;10.076;2023-02-17T06:29:47;99302.34;;;-145.95;100.00
37648;BME280;23490;53.656;10.076;2023-02-17T06:32:12;99281.72;;;-145.95;100.00
37648;BME280;23490;53.656;10.076;2023-02-17T06:34:38;99273.44;;;-145.95;100.00
37648;BME280;23490;53.656;10.076;2023-02-17T06:37:03;99228.00;;;-145.95;100.00
37648;BME280;23490;53.656;10.076;2023-02-17T06:39:28;99273.44;;;-145.95;100.00
37648;BME280;23490;53.656;10.076;2023-02-17T06:41:54;99294.09;;;-145.95;100.00
37648;BME280;23490;53.656;10.076;2023-02-17T06:44:19;99298.22;;;-145.95;100.00
37648;BME280;23490;53.656;10.076;2023-02-17T06:46:44;99265.19;;;-145.95;100.00
37648;BME280;23490;53.656;10.076;2023-02-17T06:49:11;99236.28;;;-145.95;100.00
37648;BME280;23490;53.656;10.076;2023-02-17T06:51:36;99240.41;;;-145.95;100.00
37648;BME280;23490;53.656;10.076;2023-02-17T06:54:02;99265.19;;;-145.95;100.00
37648;BME280;23490;53.656;10.076;2023-02-17T06:56:27;99314.75;;;-145.95;100.00
37648;BME280;23490;53.656;10.076;2023-02-17T06:58:52;99269.31;;;-145.95;100.00
37648;BME280;23490;53.656;10.076;2023-02-17T07:01:20;99283.78;;;-145.95;100.00
37648;BME280;23490;53.656;10.076;2023-02-17T07:03:46;99248.66;;;-145.95;100.00
37648;BME280;23490;53.656;10.076;2023-02-17T07:06:12;99289.97;;;-145.95;100.00
37648;BME280;23490;53.656;10.076;2023-02-17T07:08:37;99269.31;;;-145.95;100.00
37648;BME280;23490;53.656;10.076;2023-02-17T07:11:05;99240.41;;;-145.95;100.00
37648;BME280;23490;53.656;10.076;2023-02-17T07:13:30;99302.34;;;-145.95;100.00
37648;BME280;23490;53.656;10.076;2023-02-17T07:15:56;99256.94;;;-145.95;100.00
37648;BME280;23490;53.656;10.076;2023-02-17T07:18:21;99263.13;;;-145.95;100.00
37648;BME280;23490;53.656;10.076;2023-02-17T07:20:47;99281.72;;;-145.95;100.00
37648;BME280;23490;53.656;10.076;2023-02-17T07:23:12;99246.59;;;-145.95;100.00
37648;BME280;23490;53.656;10.076;2023-02-17T07:25:37;99281.72;;;-145.95;100.00
37648;BME280;23490;53.656;10.076;2023-02-17T07:28:03;99248.66;;;-145.95;100.00
37648;BME280;23490;53.656;10.076;2023-02-17T07:30:28;99269.31;;;-145.95;100.00
37648;BME280;23490;53.656;10.076;2023-02-17T07:32:54;99285.84;;;-145.95;100.00
37648;BME280;23490;53.656;10.076;2023-02-17T07:35:19;99287.91;;;-145.95;100.00
37648;BME280;23490;53.656;10.076;2023-02-17T07:37:44;99279.63;;;-145.95;100.00
37648;BME280;23490;53.656;10.076;2023-02-17T07:40:10;99281.72;;;-145.95;100.00
37648;BME280;23490;53.656;10.076;2023-02-17T07:42:35;99244.53;;;-145.95;100.00
37648;BME280;23490;53.656;10.076;2023-02-17T07:45:01;99285.84;;;-145.95;100.00
37648;BME280;23490;53.656;10.076;2023-02-17T07:47:26;99252.78;;;-145.95;100.00
37648;BME280;23490;53.656;10.076;2023-02-17T07:49:51;99252.78;;;-145.95;100.00
37648;BME280;23490;53.656;10.076;2023-02-17T07:52:17;99259.00;;;-145.95;100.00
37648;BME280;23490;53.656;10.076;2023-02-17T07:54:42;99281.72;;;-145.95;100.00
37648;BME280;23490;53.656;10.076;2023-02-17T07:57:08;99252.78;;;-145.95;100.00
37648;BME280;23490;53.656;10.076;2023-02-17T07:59:33;99217.69;;;-145.95;100.00
37648;BME280;23490;53.656;10.076;2023-02-17T08:01:58;99248.66;;;-145.95;100.00
37648;BME280;23490;53.656;10.076;2023-02-17T08:04:24;99228.00;;;-145.95;100.00
37648;BME280;23490;53.656;10.076;2023-02-17T08:06:49;99261.06;;;-145.95;100.00
37648;BME280;23490;53.656;10.076;2023-02-17T08:09:14;99242.47;;;-145.95;100.00
37648;BME280;23490;53.656;10.076;2023-02-17T08:11:58;99232.16;;;-145.95;100.00
37648;BME280;23490;53.656;10.076;2023-02-17T08:14:42;99246.59;;;-145.95;100.00
37648;BME280;23490;53.656;10.076;2023-02-17T08:17:07;99207.38;;;-145.95;100.00
37648;BME280;23490;53.656;10.076;2023-02-17T08:19:33;99215.63;;;-145.95;100.00
37648;BME280;23490;53.656;10.076;2023-02-17T08:21:58;99236.28;;;-145.95;100.00
37648;BME280;23490;53.656;10.076;2023-02-17T08:24:24;99279.63;;;-145.95;100.00
37648;BME280;23490;53.656;10.076;2023-02-17T08:26:51;99261.06;;;-145.95;100.00
37648;BME280;23490;53.656;10.076;2023-02-17T08:29:17;99205.28;;;-145.95;100.00
37648;BME280;23490;53.656;10.076;2023-02-17T08:31:44;99265.19;;;-145.95;100.00
37648;BME280;23490;53.656;10.076;2023-02-17T08:34:11;99186.72;;;-145.95;100.00
37648;BME280;23490;53.656;10.076;2023-02-17T08:36:37;99273.44;;;-145.95;100.00
37648;BME280;23490;53.656;10.076;2023-02-17T08:39:10;99215.63;;;-145.95;100.00
37648;BME280;23490;53.656;10.076;2023-02-17T08:41:37;99228.00;;;-145.95;100.00
37648;BME280;23490;53.656;10.076;2023-02-17T08:44:07;99232.16;;;-145.95;100.00
37648;BME280;23490;53.656;10.076;2023-02-17T08:46:34;99242.47;;;-145.95;100.00
37648;BME280;23490;53.656;10.076;2023-02-17T08:49:00;99238.34;;;-145.95;100.00
37648;BME280;23490;53.656;10.076;2023-02-17T08:51:26;99242.47;;;-145.95;100.00
37648;BME280;23490;53.656;10.076;2023-02-17T08:53:57;99240.41;;;-145.95;100.00
37648;BME280;23490;53.656;10.076;2023-02-17T08:56:24;99244.53;;;-145.95;100.00
37648;BME280;23490;53.656;10.076;2023-02-17T08:58:49;99252.78;;;-145.95;100.00
37648;BME280;23490;53.656;10.076;2023-02-17T09:01:15;99209.44;;;-145.95;100.00
37648;BME280;23490;53.656;10.076;2023-02-17T09:03:44;99265.19;;;-145.95;100.00
37648;BME280;23490;53.656;10.076;2023-02-17T09:06:10;99240.41;;;-145.95;100.00
37648;BME280;23490;53.656;10.076;2023-02-17T09:08:36;99232.16;;;-145.95;100.00
37648;BME280;23490;53.656;10.076;2023-02-17T09:11:03;99215.63;;;-145.95;100.00
37648;BME280;23490;53.656;10.076;2023-02-17T09:13:29;99261.06;;;-145.95;100.00
37648;BME280;23490;53.656;10.076;2023-02-17T09:15:54;99244.53;;;-145.95;100.00
37648;BME280;23490;53.656;10.076;2023-02-17T09:18:20;99250.72;;;-145.95;100.00
37648;BME280;23490;53.656;10.076;2023-02-17T09:20:46;99238.34;;;-145.95;100.00
37648;BME280;23490;53.656;10.076;2023-02-17T09:23:12;99234.22;;;-145.95;100.00
37648;BME280;23490;53.656;10.076;2023-02-17T09:25:38;99248.66;;;-145.95;100.00
37648;BME280;23490;53.656;10.076;2023-02-17T09:28:03;99194.97;;;-145.95;100.00
37648;BME280;23490;53.656;10.076;2023-02-17T09:30:29;99248.66;;;-145.95;100.00
37648;BME280;23490;53.656;10.076;2023-02-17T09:32:56;99244.53;;;-145.95;100.00
37648;BME280;23490;53.656;10.076;2023-02-17T09:35:21;99215.63;;;-145.95;100.00
37648;BME280;23490;53.656;10.076;2023-02-17T09:37:47;99269.31;;;-145.95;100.00
37648;BME280;23490;53.656;10.076;2023-02-17T09:40:21;99194.97;;;-145.95;100.00
37648;BME280;23490;53.656;10.076;2023-02-17T09:42:47;99240.41;;;-145.95;100.00
37648;BME280;23490;53.656;10.076;2023-02-17T09:45:18;99240.41;;;-145.95;100.00
37648;BME280;23490;53.656;10.076;2023-02-17T09:47:59;99232.16;;;-145.95;100.00
37648;BME280;23490;53.656;10.076;2023-02-17T09:50:36;99240.41;;;-145.95;100.00
37648;BME280;23490;53.656;10.076;2023-02-17T09:53:26;99310.63;;;-145.95;100.00
37648;BME280;23490;53.656;10.076;2023-02-17T09:55:56;99225.94;;;-145.95;100.00
37648;BME280;23490;53.656;10.076;2023-02-17T09:58:46;99215.63;;;-145.95;100.00
37648;BME280;23490;53.656;10.076;2023-02-17T10:01:22;99221.81;;;-145.95;100.00
37648;BME280;23490;53.656;10.076;2023-02-17T10:06:58;99199.09;;;-145.95;100.00
37648;BME280;23490;53.656;10.076;2023-02-17T10:09:38;99182.59;;;-145.95;100.00
37648;BME280;23490;53.656;10.076;2023-02-17T10:12:30;99201.16;;;-145.95;100.00
37648;BME280;23490;53.656;10.076;2023-02-17T10:15:13;99221.81;;;-145.95;100.00
37648;BME280;23490;53.656;10.076;2023-02-17T10:20:36;99199.09;;;-145.95;100.00
37648;BME280;23490;53.656;10.076;2023-02-17T10:23:10;99221.81;;;-145.95;100.00
37648;BME280;23490;53.656;10.076;2023-02-17T10:26:00;99285.84;;;-145.95;100.00
37648;BME280;23490;53.656;10.076;2023-02-17T10:34:35;99194.97;;;-145.95;100.00
37648;BME280;23490;53.656;10.076;2023-02-17T10:37:03;99215.63;;;-145.95;100.00
37648;BME280;23490;53.656;10.076;2023-02-17T10:39:52;99215.63;;;-145.95;100.00
37648;BME280;23490;53.656;10.076;2023-02-17T10:44:50;99215.63;;;-145.95;100.00
37648;BME280;23490;53.656;10.076;2023-02-17T10:47:16;99230.06;;;-145.95;100.00
37648;BME280;23490;53.656;10.076;2023-02-17T10:49:45;99164.00;;;-145.95;100.00
37648;BME280;23490;53.656;10.076;2023-02-17T10:52:35;99174.31;;;-145.95;100.00
37648;BME280;23490;53.656;10.076;2023-02-17T10:55:05;99186.72;;;-145.95;100.00
37648;BME280;23490;53.656;10.076;2023-02-17T10:57:36;99164.00;;;-145.95;100.00
37648;BME280;23490;53.656;10.076;2023-02-17T11:00:04;99161.94;;;-145.95;100.00
37648;BME280;23490;53.656;10.076;2023-02-17T11:02:33;99203.22;;;-145.95;100.00
37648;BME280;23490;53.656;10.076;2023-02-17T11:04:59;99174.31;;;-145.95;100.00
37648;BME280;23490;53.656;10.076;2023-02-17T11:07:41;99174.31;;;-145.95;100.00
37648;BME280;23490;53.656;10.076;2023-02-17T11:10:22;99219.75;;;-145.95;100.00
37648;BME280;23490;53.656;10.076;2023-02-17T11:12:49;99186.72;;;-145.95;100.00
37648;BME280;23490;53.656;10.076;2023-02-17T11:15:18;99176.38;;;-145.95;100.00
37648;BME280;23490;53.656;10.076;2023-02-17T11:17:44;99178.44;;;-145.95;100.00
37648;BME280;23490;53.656;10.076;2023-02-17T11:23:00;99145.41;;;-145.95;100.00
37648;BME280;23490;53.656;10.076;2023-02-17T11:25:31;99211.50;;;-145.95;100.00
37648;BME280;23490;53.656;10.076;2023-02-17T11:28:00;99120.63;;;-145.95;100.00
37648;BME280;23490;53.656;10.076;2023-02-17T11:30:27;99182.59;;;-145.95;100.00
37648;BME280;23490;53.656;10.076;2023-02-17T11:32:53;99178.44;;;-145.95;100.00
37648;BME280;23490;53.656;10.076;2023-02-17T11:38:11;99168.13;;;-145.95;100.00
37648;BME280;23490;53.656;10.076;2023-02-17T11:40:37;99178.44;;;-145.95;100.00
37648;BME280;23490;53.656;10.076;2023-02-17T11:43:03;99161.94;;;-145.95;100.00
37648;BME280;23490;53.656;10.076;2023-02-17T11:46:28;99186.72;;;-145.95;100.00
37648;BME280;23490;53.656;10.076;2023-02-17T11:48:39;99161.94;;;-145.95;100.00
37648;BME280;23490;53.656;10.076;2023-02-17T11:51:24;99124.75;;;-145.95;100.00
37648;BME280;23490;53.656;10.076;2023-02-17T11:56:32;99157.81;;;-145.95;100.00
37648;BME280;23490;53.656;10.076;2023-02-17T12:02:10;99240.41;;;-145.95;100.00
37648;BME280;23490;53.656;10.076;2023-02-17T12:04:58;99166.06;;;-145.95;100.00
37648;BME280;23490;53.656;10.076;2023-02-17T12:10:37;99133.03;;;-145.95;100.00
37648;BME280;23490;53.656;10.076;2023-02-17T12:18:40;99190.84;;;-145.95;100.00
37648;BME280;23490;53.656;10.076;2023-02-17T12:21:51;99137.16;;;-145.95;100.00
37648;BME280;23490;53.656;10.076;2023-02-17T12:32:16;99194.97;;;-145.95;100.00
37648;BME280;23490;53.656;10.076;2023-02-17T12:34:52;99194.97;;;-145.95;100.00
37648;BME280;23490;53.656;10.076;2023-02-17T12:37:22;99126.81;;;-145.95;100.00
37648;BME280;23490;53.656;10.076;2023-02-17T12:39:54;99128.88;;;-145.95;100.00
37648;BME280;23490;53.656;10.076;2023-02-17T12:42:32;99147.47;;;-145.95;100.00
37648;BME280;23490;53.656;10.076;2023-02-17T12:45:04;99133.03;;;-145.95;100.00
37648;BME280;23490;53.656;10.076;2023-02-17T12:47:56;99194.97;;;-145.95;100.00
37648;BME280;23490;53.656;10.076;2023-02-17T12:50:24;99207.38;;;-145.95;100.00
37648;BME280;23490;53.656;10.076;2023-02-17T12:52:56;99170.19;;;-145.95;100.00
37648;BME280;23490;53.656;10.076;2023-02-17T12:55:31;99108.25;;;-145.95;100.00
37648;BME280;23490;53.656;10.076;2023-02-17T12:58:02;99133.03;;;-145.95;100.00
37648;BME280;23490;53.656;10.076;2023-02-17T13:00:38;99122.69;;;-145.95;100.00
37648;BME280;23490;53.656;10.076;2023-02-17T13:03:05;99153.66;;;-145.95;100.00
37648;BME280;23490;53.656;10.076;2023-02-17T13:05:46;99141.28;;;-145.95;100.00
37648;BME280;23490;53.656;10.076;2023-02-17T13:08:21;99137.16;;;-145.95;100.00
37648;BME280;23490;53.656;10.076;2023-02-17T13:10:59;99149.53;;;-145.95;100.00
37648;BME280;23490;53.656;10.076;2023-02-17T13:13:27;99147.47;;;-145.95;100.00
37648;BME280;23490;53.656;10.076;2023-02-17T13:16:12;99118.56;;;-145.95;100.00
37648;BME280;23490;53.656;10.076;2023-02-17T13:18:43;99095.84;;;-145.95;100.00
37648;BME280;23490;53.656;10.076;2023-02-17T13:28:48;99155.72;;;-145.95;100.00
37648;BME280;23490;53.656;10.076;2023-02-17T13:31:17;99153.66;;;-145.95;100.00
37648;BME280;23490;53.656;10.076;2023-02-17T13:33:52;99128.88;;;-145.95;100.00
37648;BME280;23490;53.656;10.076;2023-02-17T13:36:32;99157.81;;;-145.95;100.00
37648;BME280;23490;53.656;10.076;2023-02-17T13:39:04;99153.66;;;-145.95;100.00